Time;durP1;ratioP1;P1;durP2;ratioP2;P2;SDS_P1;SDS_P2;PMS_P1;PMS_P2;Temp;Humidity;BMP_temperature;BMP_pressure;BME280_temperature;BME280_humidity;BME280_pressure;Samples;Min_cycle;Max_cycle;Signal;HPM_P1;HPM_P2
2023/03/04 00:01:28;;;;;;;13.97;12.97;;;19.10;45.40;;;;;;5073766;28;20495;-66
2023/03/04 00:03:55;;;;;;;14.30;13.30;;;19.10;45.40;;;;;;5074157;28;20442;-65
2023/03/04 00:06:22;;;;;;;13.93;12.83;;;19.10;45.50;;;;;;5074173;28;20483;-66
2023/03/04 00:08:49;;;;;;;12.83;11.83;;;19.10;45.50;;;;;;5074011;28;21590;-66
2023/03/04 00:11:16;;;;;;;12.43;11.73;;;19.10;45.50;;;;;;5073556;28;20513;-66
2023/03/04 00:13:44;;;;;;;13.00;12.10;;;19.10;45.50;;;;;;5073825;28;21039;-66
2023/03/04 00:16:11;;;;;;;13.10;12.30;;;19.10;45.50;;;;;;5073977;28;20486;-65
2023/03/04 00:18:38;;;;;;;14.20;13.07;;;19.00;45.40;;;;;;5073887;28;20471;-65
2023/03/04 00:21:05;;;;;;;11.80;11.10;;;19.00;45.50;;;;;;5073329;28;20525;-65
2023/03/04 00:23:32;;;;;;;13.80;12.70;;;19.00;45.50;;;;;;5073591;28;20443;-66
2023/03/04 00:25:59;;;;;;;12.90;12.03;;;19.00;45.50;;;;;;5073895;28;20813;-66
2023/03/04 00:28:26;;;;;;;14.37;13.00;;;19.00;45.50;;;;;;5073801;28;21075;-66
2023/03/04 00:30:55;;;;;;;12.17;11.43;;;19.00;45.50;;;;;;5073388;28;20559;-66
2023/03/04 00:33:21;;;;;;;12.93;12.10;;;19.00;45.60;;;;;;5073323;28;20470;-65
2023/03/04 00:35:48;;;;;;;12.67;11.40;;;18.90;45.50;;;;;;5073605;28;20470;-65
2023/03/04 00:38:15;;;;;;;12.27;11.43;;;18.90;45.50;;;;;;5073477;28;20471;-66
2023/03/04 00:40:42;;;;;;;12.90;12.10;;;18.90;46.00;;;;;;5073027;28;20499;-66
2023/03/04 00:43:09;;;;;;;13.13;12.20;;;18.90;45.50;;;;;;5072631;28;20498;-66
2023/03/04 00:45:36;;;;;;;13.73;12.63;;;18.90;45.50;;;;;;5073475;28;20938;-66
2023/03/04 00:48:04;;;;;;;11.20;10.60;;;18.90;45.60;;;;;;5073335;28;20478;-66
2023/03/04 00:50:31;;;;;;;13.90;12.93;;;18.90;45.60;;;;;;5072973;28;20498;-66
2023/03/04 00:52:58;;;;;;;12.37;11.57;;;18.90;45.60;;;;;;5073022;28;20477;-66
2023/03/04 00:55:26;;;;;;;12.37;11.57;;;18.90;46.20;;;;;;5073215;28;20906;-65
2023/03/04 00:57:52;;;;;;;12.00;11.20;;;18.80;45.60;;;;;;5073035;28;20498;-65
2023/03/04 01:00:20;;;;;;;11.70;11.03;;;18.80;45.60;;;;;;5072719;28;20502;-65
2023/03/04 01:02:47;;;;;;;11.53;10.83;;;18.80;45.70;;;;;;5072881;28;20475;-66
2023/03/04 01:05:15;;;;;;;12.90;12.20;;;18.80;45.70;;;;;;5072987;28;20471;-66
2023/03/04 01:07:42;;;;;;;12.40;11.63;;;18.80;45.70;;;;;;5072932;28;20486;-66
2023/03/04 01:10:12;;;;;;;12.73;11.83;;;18.80;45.80;;;;;;5072456;28;20499;-65
2023/03/04 01:12:40;;;;;;;12.23;11.43;;;18.80;45.80;;;;;;5072881;28;20475;-65
2023/03/04 01:15:08;;;;;;;11.87;11.27;;;18.80;45.80;;;;;;5072722;28;20489;-65
2023/03/04 01:17:35;;;;;;;12.57;11.70;;;18.70;45.70;;;;;;5072334;28;20443;-65
2023/03/04 01:20:02;;;;;;;11.80;11.10;;;18.70;45.70;;;;;;5072789;28;20495;-65
2023/03/04 01:22:31;;;;;;;11.63;10.97;;;18.70;45.70;;;;;;5072421;28;20539;-65
2023/03/04 01:24:57;;;;;;;11.03;10.33;;;18.70;45.70;;;;;;5072621;28;20467;-65
2023/03/04 01:27:24;;;;;;;11.13;10.53;;;18.70;45.60;;;;;;5072511;28;20535;-65
2023/03/04 01:29:51;;;;;;;11.20;10.60;;;18.70;45.70;;;;;;5072136;28;20528;-65
2023/03/04 01:32:18;;;;;;;10.90;10.30;;;18.70;45.70;;;;;;5072223;28;20874;-66
2023/03/04 01:34:45;;;;;;;11.50;10.90;;;18.70;45.80;;;;;;5072215;28;20570;-66
2023/03/04 01:37:13;;;;;;;11.10;10.40;;;18.70;45.80;;;;;;5072259;28;20486;-66
2023/03/04 01:39:41;;;;;;;11.07;10.47;;;18.70;45.80;;;;;;5076424;28;20454;-66
2023/03/04 01:42:17;;;;;;;10.00;9.60;;;18.70;45.80;;;;;;5072471;28;20482;-66
2023/03/04 01:44:45;;;;;;;11.00;10.40;;;18.70;45.80;;;;;;5072501;28;20469;-67
2023/03/04 01:47:12;;;;;;;10.50;9.93;;;18.70;45.80;;;;;;5072501;28;20478;-65
2023/03/04 01:49:39;;;;;;;10.70;10.20;;;18.60;45.70;;;;;;5071935;28;20495;-65
2023/03/04 01:52:10;;;;;;;11.17;10.67;;;18.60;45.70;;;;;;5072052;28;20848;-65
2023/03/04 01:54:37;;;;;;;11.00;10.40;;;18.60;45.80;;;;;;5071430;28;21080;-66
2023/03/04 01:57:17;;;;;;;10.60;10.10;;;18.60;45.70;;;;;;5071935;28;20443;-65
2023/03/04 01:59:44;;;;;;;11.03;10.33;;;18.60;45.80;;;;;;5072185;28;20462;-66
2023/03/04 02:02:11;;;;;;;11.03;10.30;;;18.60;45.80;;;;;;5072012;28;20471;-66
2023/03/04 02:04:40;;;;;;;11.17;10.50;;;18.60;45.80;;;;;;5072269;28;20466;-66
2023/03/04 02:07:08;;;;;;;10.43;10.00;;;18.60;45.80;;;;;;5071804;28;20483;-66
2023/03/04 02:09:35;;;;;;;10.40;9.80;;;18.60;45.90;;;;;;5072341;28;20475;-66
2023/03/04 02:12:02;;;;;;;10.93;10.33;;;18.60;45.90;;;;;;5079591;28;20479;-66
2023/03/04 02:14:31;;;;;;;10.13;9.73;;;18.60;45.90;;;;;;5085511;28;20483;-65
2023/03/04 02:16:58;;;;;;;17.63;9.97;;;18.50;45.80;;;;;;5084069;28;20450;-66
2023/03/04 02:19:44;;;;;;;10.80;10.10;;;18.50;45.80;;;;;;5084638;28;20447;-66
2023/03/04 02:22:11;;;;;;;10.27;9.87;;;18.60;45.90;;;;;;5085761;28;20446;-65
2023/03/04 02:24:43;;;;;;;10.10;9.60;;;18.50;45.90;;;;;;5087040;28;20442;-65
2023/03/04 02:27:11;;;;;;;10.97;10.37;;;18.50;45.80;;;;;;5071866;28;20962;-65
2023/03/04 02:29:38;;;;;;;10.60;10.10;;;18.60;46.00;;;;;;5071630;28;20475;-65
2023/03/04 02:32:05;;;;;;;10.50;9.80;;;18.50;45.80;;;;;;5071684;28;20485;-65
2023/03/04 02:34:34;;;;;;;10.10;9.70;;;18.50;45.90;;;;;;5071337;28;20566;-65
2023/03/04 02:37:02;;;;;;;10.70;10.00;;;18.50;45.90;;;;;;5071682;28;20475;-65
2023/03/04 02:39:33;;;;;;;9.90;9.43;;;18.50;45.90;;;;;;5071519;28;20933;-64
2023/03/04 02:42:01;;;;;;;10.20;9.70;;;18.50;45.90;;;;;;5071938;28;20533;-64
2023/03/04 02:44:31;;;;;;;10.20;9.70;;;18.50;45.90;;;;;;5071162;28;20467;-65
2023/03/04 02:46:58;;;;;;;10.57;9.90;;;18.50;46.00;;;;;;5071412;28;20482;-65
2023/03/04 02:49:27;;;;;;;10.37;9.80;;;18.50;46.00;;;;;;5071357;28;20493;-65
2023/03/04 02:52:01;;;;;;;9.77;9.37;;;18.50;46.00;;;;;;5071261;28;20877;-65
2023/03/04 02:54:28;;;;;;;9.60;9.27;;;18.50;46.40;;;;;;5070751;28;20514;-65
2023/03/04 02:56:57;;;;;;;9.60;9.20;;;18.50;45.90;;;;;;5071345;28;20479;-65
2023/03/04 02:59:24;;;;;;;10.37;9.97;;;18.40;45.90;;;;;;5071282;28;20475;-65
2023/03/04 03:01:53;;;;;;;9.80;9.50;;;18.50;45.90;;;;;;5071139;28;20481;-65
2023/03/04 03:04:21;;;;;;;9.10;8.70;;;18.50;45.90;;;;;;5070898;28;20475;-64
2023/03/04 03:06:48;;;;;;;9.00;8.60;;;18.40;45.90;;;;;;5072745;28;20530;-65
2023/03/04 03:09:15;;;;;;;9.30;9.00;;;18.40;45.90;;;;;;5075291;28;20478;-65
2023/03/04 03:11:41;;;;;;;9.93;9.43;;;18.40;46.00;;;;;;5075006;28;20494;-64
2023/03/04 03:14:09;;;;;;;9.20;8.80;;;18.40;46.00;;;;;;5074732;28;20564;-65
2023/03/04 03:16:36;;;;;;;9.93;9.43;;;18.40;46.00;;;;;;5075031;28;20486;-65
2023/03/04 03:19:04;;;;;;;9.43;9.03;;;18.40;46.00;;;;;;5075014;28;20482;-65
2023/03/04 03:21:32;;;;;;;9.03;8.57;;;18.40;46.00;;;;;;5074730;28;20644;-65
2023/03/04 03:23:59;;;;;;;9.63;9.23;;;18.40;45.90;;;;;;5074647;28;20504;-65
2023/03/04 03:26:26;;;;;;;10.13;9.50;;;18.40;46.00;;;;;;5074831;28;20470;-65
2023/03/04 03:28:53;;;;;;;9.07;8.77;;;18.40;46.50;;;;;;5074779;28;20878;-65
2023/03/04 03:31:19;;;;;;;9.27;8.87;;;18.40;46.00;;;;;;5074436;28;20502;-65
2023/03/04 03:33:46;;;;;;;9.50;9.20;;;18.30;45.90;;;;;;5074397;28;20487;-65
2023/03/04 03:36:15;;;;;;;9.10;8.80;;;18.30;45.90;;;;;;5074590;28;20510;-65
2023/03/04 03:38:42;;;;;;;9.20;8.80;;;18.40;46.00;;;;;;5074645;28;20850;-64
2023/03/04 03:41:08;;;;;;;9.03;8.53;;;18.40;46.00;;;;;;5074279;28;20499;-65
2023/03/04 03:43:35;;;;;;;9.60;9.00;;;18.30;45.90;;;;;;5074402;28;20479;-64
2023/03/04 03:46:02;;;;;;;9.67;8.97;;;18.30;46.00;;;;;;5074477;28;20471;-64
2023/03/04 03:48:29;;;;;;;8.53;8.03;;;18.30;46.00;;;;;;5074439;28;20471;-65
2023/03/04 03:50:56;;;;;;;9.43;9.07;;;18.30;46.00;;;;;;5073986;28;20502;-65
2023/03/04 03:53:24;;;;;;;10.77;10.10;;;18.30;46.00;;;;;;5074286;28;20478;-65
2023/03/04 03:55:51;;;;;;;9.10;8.80;;;18.30;46.00;;;;;;5074116;28;20566;-65
2023/03/04 03:58:18;;;;;;;9.80;9.27;;;18.30;46.10;;;;;;5074230;28;20490;-65
2023/03/04 04:00:45;;;;;;;9.73;9.33;;;18.30;46.10;;;;;;5073863;28;20491;-65
2023/03/04 04:03:14;;;;;;;9.47;9.00;;;18.30;46.10;;;;;;5074050;28;20985;-65
2023/03/04 04:05:41;;;;;;;9.57;9.07;;;18.30;46.10;;;;;;5074056;28;20444;-65
2023/03/04 04:08:09;;;;;;;8.77;8.30;;;18.30;46.10;;;;;;5074097;28;20720;-65
2023/03/04 04:10:38;;;;;;;8.50;8.10;;;18.30;46.20;;;;;;5073857;28;20495;-65
2023/03/04 04:13:05;;;;;;;8.20;7.90;;;18.30;46.10;;;;;;5074031;28;20490;-65
2023/03/04 04:15:31;;;;;;;8.73;8.40;;;18.30;46.10;;;;;;5073892;28;20569;-65
2023/03/04 04:17:58;;;;;;;8.70;8.40;;;18.30;46.20;;;;;;5072915;28;20452;-65
2023/03/04 04:20:25;;;;;;;9.23;8.63;;;18.20;46.10;;;;;;5073523;28;20538;-65
2023/03/04 04:22:52;;;;;;;8.47;8.07;;;18.30;46.20;;;;;;5073570;28;20492;-65
2023/03/04 04:25:19;;;;;;;9.00;8.60;;;18.20;46.20;;;;;;5073819;28;21100;-65
2023/03/04 04:27:47;;;;;;;8.50;8.20;;;18.20;46.20;;;;;;5073864;28;20478;-65
2023/03/04 04:30:14;;;;;;;8.87;8.40;;;18.20;46.10;;;;;;5073385;28;20502;-65
2023/03/04 04:32:41;;;;;;;9.00;8.60;;;18.20;46.20;;;;;;5073502;28;20479;-65
2023/03/04 04:35:09;;;;;;;10.53;10.00;;;18.20;46.10;;;;;;5073432;28;20518;-65
2023/03/04 04:37:36;;;;;;;8.60;8.27;;;18.20;46.20;;;;;;5073300;28;20475;-65
2023/03/04 04:40:03;;;;;;;9.23;8.83;;;18.20;46.20;;;;;;5073320;28;20513;-65
2023/03/04 04:42:30;;;;;;;8.50;8.20;;;18.20;46.20;;;;;;5073277;28;20488;-65
2023/03/04 04:44:58;;;;;;;8.90;8.27;;;18.20;46.20;;;;;;5073503;28;20471;-65
2023/03/04 04:47:25;;;;;;;8.83;8.43;;;18.20;46.20;;;;;;5073102;28;20486;-65
2023/03/04 04:49:52;;;;;;;8.40;8.10;;;18.20;46.20;;;;;;5073167;28;20895;-65
2023/03/04 04:52:19;;;;;;;8.40;8.10;;;18.20;46.20;;;;;;5073134;28;20479;-65
2023/03/04 04:54:46;;;;;;;9.03;8.37;;;18.20;46.20;;;;;;5073094;28;20471;-65
2023/03/04 04:57:13;;;;;;;8.27;8.07;;;18.20;46.20;;;;;;5073145;28;20535;-65
2023/03/04 04:59:39;;;;;;;8.33;8.03;;;18.20;46.20;;;;;;5072839;28;20475;-65
2023/03/04 05:02:08;;;;;;;9.03;8.50;;;18.20;46.20;;;;;;5072968;28;20482;-65
2023/03/04 05:04:35;;;;;;;9.00;8.60;;;18.20;46.20;;;;;;5072976;28;20490;-65
2023/03/04 05:07:01;;;;;;;8.93;8.30;;;18.20;46.30;;;;;;5073200;28;20471;-65
2023/03/04 05:09:28;;;;;;;8.73;8.23;;;18.20;46.20;;;;;;5072582;28;20556;-66
2023/03/04 05:11:55;;;;;;;8.77;8.40;;;18.10;46.10;;;;;;5072747;28;20514;-66
2023/03/04 05:14:22;;;;;;;8.53;8.23;;;18.20;46.20;;;;;;5072871;28;20844;-65
2023/03/04 05:16:51;;;;;;;7.90;7.60;;;18.20;46.30;;;;;;5072610;28;21062;-65
2023/03/04 05:19:20;;;;;;;8.10;7.80;;;18.20;46.20;;;;;;5072447;28;21099;-65
2023/03/04 05:21:47;;;;;;;9.03;8.63;;;18.20;46.20;;;;;;5072441;28;20502;-65
2023/03/04 05:24:14;;;;;;;9.63;9.03;;;18.10;46.20;;;;;;5072536;28;20479;-66
2023/03/04 05:26:40;;;;;;;8.20;8.00;;;18.10;46.20;;;;;;5072617;28;20482;-65
2023/03/04 05:29:07;;;;;;;7.97;7.50;;;18.20;46.30;;;;;;5072282;28;20486;-65
2023/03/04 05:31:34;;;;;;;8.20;7.77;;;18.20;46.30;;;;;;5072413;28;20495;-66
2023/03/04 05:34:01;;;;;;;8.27;7.87;;;18.20;46.30;;;;;;5072295;28;20531;-65
2023/03/04 05:36:30;;;;;;;8.17;7.70;;;18.10;46.30;;;;;;5072088;28;21115;-65
2023/03/04 05:38:56;;;;;;;7.67;7.43;;;18.20;46.30;;;;;;5072102;28;20865;-65
2023/03/04 05:41:24;;;;;;;8.30;8.00;;;18.10;46.30;;;;;;5071993;28;20507;-65
2023/03/04 05:43:51;;;;;;;8.13;7.63;;;18.10;46.30;;;;;;5072150;28;20447;-65
2023/03/04 05:46:24;;;;;;;8.00;7.70;;;18.10;46.30;;;;;;5072435;28;20489;-66
2023/03/04 05:48:51;;;;;;;8.53;8.23;;;18.20;46.40;;;;;;5072006;28;20816;-65
2023/03/04 05:51:18;;;;;;;8.73;8.33;;;18.10;46.30;;;;;;5071907;28;21037;-62
2023/03/04 05:53:46;;;;;;;7.57;7.37;;;18.10;46.40;;;;;;5071960;28;20478;-55
2023/03/04 05:56:16;;;;;;;7.63;7.40;;;18.20;46.20;;;;;;5071939;28;20566;-58
2023/03/04 05:58:46;;;;;;;8.30;8.07;;;18.20;46.00;;;;;;5071826;28;20490;-57
2023/03/04 06:01:13;;;;;;;9.73;9.30;;;18.20;46.00;;;;;;5071705;28;20985;-62
2023/03/04 06:03:42;;;;;;;9.20;8.80;;;18.20;46.00;;;;;;5071920;28;20996;-63
2023/03/04 06:06:09;;;;;;;8.63;8.17;;;18.20;46.10;;;;;;5071723;28;20879;-63
2023/03/04 06:08:36;;;;;;;8.63;8.33;;;18.20;46.20;;;;;;5071784;28;20478;-63
2023/03/04 06:11:04;;;;;;;7.90;7.60;;;18.20;46.30;;;;;;5071727;28;20471;-60
2023/03/04 06:13:31;;;;;;;7.70;7.50;;;18.20;46.30;;;;;;5071639;28;20454;-59
2023/03/04 06:15:59;;;;;;;8.40;8.07;;;18.20;46.40;;;;;;5071493;28;20506;-63
2023/03/04 06:18:28;;;;;;;7.90;7.60;;;18.20;46.30;;;;;;5071651;28;20534;-60
2023/03/04 06:20:58;;;;;;;8.70;7.97;;;18.20;46.10;;;;;;5071509;28;20499;-60
2023/03/04 06:23:25;;;;;;;7.28;6.97;;;18.30;46.10;;;;;;5071099;28;20452;-61
2023/03/04 06:25:53;;;;;;;9.30;8.70;;;18.30;46.50;;;;;;5074538;28;20243;-62
2023/03/04 06:28:22;;;;;;;8.40;8.10;;;18.50;46.60;;;;;;5074361;28;20459;-61
2023/03/04 06:30:51;;;;;;;8.60;8.10;;;18.60;46.40;;;;;;5074019;28;20517;-59
2023/03/04 06:33:18;;;;;;;8.90;8.70;;;18.60;46.10;;;;;;5073757;28;20471;-60
2023/03/04 06:35:45;;;;;;;9.67;9.13;;;18.70;46.00;;;;;;5072563;28;20565;-62
2023/03/04 06:38:11;;;;;;;9.50;9.00;;;18.70;45.90;;;;;;5071827;28;20483;-61
2023/03/04 06:40:38;;;;;;;10.23;9.60;;;18.80;45.80;;;;;;5071346;28;21010;-59
2023/03/04 06:43:05;;;;;;;9.80;9.33;;;18.80;45.80;;;;;;5071188;28;20483;-57
2023/03/04 06:45:34;;;;;;;8.60;8.30;;;18.80;45.70;;;;;;5071578;28;20494;-63
2023/03/04 06:48:00;;;;;;;9.00;8.50;;;18.90;45.60;;;;;;5072021;28;20512;-59
2023/03/04 06:50:27;;;;;;;8.83;8.33;;;18.90;45.60;;;;;;5071834;28;20978;-55
2023/03/04 06:52:56;;;;;;;8.10;7.90;;;18.90;45.50;;;;;;5070994;28;20485;-56
2023/03/04 06:55:23;;;;;;;8.83;8.20;;;19.00;45.60;;;;;;5071460;28;20482;-59
2023/03/04 06:57:50;;;;;;;8.83;8.43;;;19.00;45.50;;;;;;5071378;28;20896;-58
2023/03/04 07:00:18;;;;;;;9.23;8.63;;;19.00;45.50;;;;;;5071179;28;20499;-57
2023/03/04 07:02:50;;;;;;;8.67;8.27;;;19.00;45.40;;;;;;5070827;28;20538;-64
2023/03/04 07:05:19;;;;;;;8.47;8.17;;;19.10;45.40;;;;;;5072727;28;20451;-55
2023/03/04 07:07:45;;;;;;;8.00;7.70;;;19.10;45.50;;;;;;5073849;28;20466;-55
2023/03/04 07:10:12;;;;;;;7.40;7.10;;;19.10;45.40;;;;;;5074267;28;20498;-58
2023/03/04 07:12:39;;;;;;;7.90;7.50;;;19.10;45.30;;;;;;5073328;28;21002;-57
2023/03/04 07:15:07;;;;;;;7.60;7.40;;;19.20;45.40;;;;;;5073973;28;20439;-57
2023/03/04 07:17:34;;;;;;;8.40;8.00;;;19.10;45.30;;;;;;5073535;28;20519;-58
2023/03/04 07:20:03;;;;;;;8.27;7.87;;;19.10;45.30;;;;;;5074283;28;20514;-58
2023/03/04 07:22:30;;;;;;;8.93;8.53;;;19.10;45.30;;;;;;5074350;28;20466;-60
2023/03/04 07:24:56;;;;;;;8.10;7.70;;;19.10;45.20;;;;;;5073954;28;20486;-57
2023/03/04 07:27:24;;;;;;;9.10;8.87;;;19.10;45.20;;;;;;5072118;28;20973;-56
2023/03/04 07:29:51;;;;;;;9.13;8.77;;;19.20;45.30;;;;;;5072552;28;20479;-58
2023/03/04 07:32:18;;;;;;;8.33;8.03;;;19.20;45.20;;;;;;5072731;28;20455;-55
2023/03/04 07:34:45;;;;;;;8.80;8.50;;;19.30;45.70;;;;;;5073285;28;20467;-52
2023/03/04 07:37:13;;;;;;;8.93;8.73;;;19.30;45.10;;;;;;5072250;28;20510;-53
2023/03/04 07:39:40;;;;;;;8.47;8.07;;;19.30;45.00;;;;;;5073031;28;20486;-58
2023/03/04 07:42:07;;;;;;;8.53;8.00;;;19.30;45.00;;;;;;5073424;28;20478;-60
2023/03/04 07:44:34;;;;;;;8.10;7.90;;;19.30;44.90;;;;;;5073606;28;20942;-59
2023/03/04 07:47:01;;;;;;;7.90;7.70;;;19.30;44.90;;;;;;5073218;28;20467;-61
2023/03/04 07:49:27;;;;;;;7.93;7.60;;;19.40;44.90;;;;;;5073161;28;20482;-57
2023/03/04 07:51:54;;;;;;;8.70;8.20;;;19.40;44.90;;;;;;5071464;28;20479;-61
2023/03/04 07:54:24;;;;;;;7.27;7.07;;;19.40;44.90;;;;;;5075071;28;20475;-52
2023/03/04 07:56:52;;;;;;;7.07;6.87;;;19.50;45.10;;;;;;5076228;28;20582;-59
2023/03/04 07:59:19;;;;;;;8.30;8.00;;;19.40;44.80;;;;;;5075768;28;20455;-55
2023/03/04 08:01:46;;;;;;;7.80;7.40;;;19.40;44.70;;;;;;5076061;28;20521;-55
2023/03/04 08:04:13;;;;;;;8.10;7.60;;;19.40;44.70;;;;;;5075986;28;20466;-53
2023/03/04 08:06:41;;;;;;;7.47;7.27;;;19.40;44.70;;;;;;5075679;28;20961;-58
2023/03/04 08:09:09;;;;;;;6.90;6.70;;;19.40;44.80;;;;;;5076248;28;20522;-58
2023/03/04 08:11:38;;;;;;;8.27;7.87;;;19.50;44.80;;;;;;5075795;28;20498;-57
2023/03/04 08:14:05;;;;;;;26.90;16.20;;;19.60;44.80;;;;;;5075800;28;20481;-57
2023/03/04 08:16:32;;;;;;;68.33;36.67;;;19.60;44.90;;;;;;5076052;28;20499;-56
2023/03/04 08:19:02;;;;;;;194.57;77.37;;;19.70;44.90;;;;;;5076476;28;20474;-56
2023/03/04 08:21:29;;;;;;;142.00;61.77;;;19.70;44.90;;;;;;5076093;28;20498;-58
2023/03/04 08:23:58;;;;;;;193.93;80.93;;;19.70;45.10;;;;;;5074817;28;20434;-67
2023/03/04 08:26:27;;;;;;;177.27;69.10;;;19.80;45.30;;;;;;5075354;28;20541;-61
2023/03/04 08:28:56;;;;;;;151.40;66.07;;;19.90;45.90;;;;;;5075060;28;20935;-66
2023/03/04 08:31:24;;;;;;;175.13;68.83;;;20.00;45.90;;;;;;5074891;28;20530;-57
2023/03/04 08:33:51;;;;;;;170.27;69.63;;;20.00;45.70;;;;;;5075629;28;20443;-64
2023/03/04 08:36:18;;;;;;;152.40;64.53;;;20.00;45.70;;;;;;5076111;28;20483;-58
2023/03/04 08:38:45;;;;;;;136.27;61.47;;;20.00;45.70;;;;;;5076479;28;20468;-58
2023/03/04 08:41:14;;;;;;;125.80;58.03;;;20.00;46.20;;;;;;5076691;28;20544;-58
2023/03/04 08:43:41;;;;;;;133.70;61.17;;;20.10;45.60;;;;;;5076582;28;20454;-65
2023/03/04 08:46:09;;;;;;;147.83;62.87;;;20.10;45.70;;;;;;5076099;28;20446;-59
2023/03/04 08:48:37;;;;;;;117.50;56.73;;;20.10;45.70;;;;;;5075966;28;20486;-57
2023/03/04 08:51:08;;;;;;;125.03;56.40;;;20.20;45.80;;;;;;5075515;28;20467;-62
2023/03/04 08:53:36;;;;;;;121.80;59.27;;;20.20;45.70;;;;;;5075850;28;20449;-62
2023/03/04 08:56:03;;;;;;;108.70;47.70;;;20.20;45.60;;;;;;5075245;28;20448;-61
2023/03/04 08:58:30;;;;;;;97.63;50.57;;;20.20;45.40;;;;;;5075531;28;20466;-62
2023/03/04 09:01:00;;;;;;;95.17;47.30;;;20.20;45.50;;;;;;5076206;28;20509;-63
2023/03/04 09:03:31;;;;;;;82.37;45.07;;;20.20;45.30;;;;;;5075561;28;20856;-62
2023/03/04 09:05:58;;;;;;;92.23;46.13;;;20.20;45.30;;;;;;5075926;28;20501;-61
2023/03/04 09:08:25;;;;;;;107.30;53.35;;;20.30;45.40;;;;;;5074695;28;20433;-64
2023/03/04 09:10:53;;;;;;;96.65;52.90;;;20.30;45.60;;;;;;5074172;28;20496;-63
2023/03/04 09:13:20;;;;;;;102.22;53.33;;;20.40;45.90;;;;;;5073336;28;20446;-64
2023/03/04 09:15:50;;;;;;;92.40;51.90;;;20.40;45.90;;;;;;5074341;28;20197;-65
2023/03/04 09:18:18;;;;;;;99.17;55.87;;;20.60;45.90;;;;;;5074903;28;20471;-62
2023/03/04 09:20:46;;;;;;;86.95;50.20;;;20.60;45.80;;;;;;5072548;28;20477;-62
2023/03/04 09:23:13;;;;;;;84.97;50.03;;;20.60;45.90;;;;;;5074078;28;20623;-62
2023/03/04 09:25:40;;;;;;;77.23;49.67;;;20.60;45.70;;;;;;5074652;28;20963;-63
2023/03/04 09:28:07;;;;;;;62.50;39.77;;;20.70;45.80;;;;;;5073155;28;20479;-62
2023/03/04 09:30:35;;;;;;;65.50;38.30;;;20.60;45.60;;;;;;5072615;28;20900;-64
2023/03/04 09:33:02;;;;;;;61.13;37.70;;;20.60;46.80;;;;;;5073948;28;20482;-61
2023/03/04 09:35:29;;;;;;;60.42;38.25;;;20.60;46.80;;;;;;5073938;28;20483;-59
2023/03/04 09:37:58;;;;;;;62.33;40.70;;;20.60;46.50;;;;;;5073276;28;20213;-60
2023/03/04 09:40:28;;;;;;;71.10;42.00;;;20.60;46.50;;;;;;5074084;28;20506;-57
2023/03/04 09:42:58;;;;;;;54.57;35.10;;;20.60;46.40;;;;;;5073537;28;20482;-58
2023/03/04 09:45:30;;;;;;;54.77;35.07;;;20.60;46.30;;;;;;5073986;28;20483;-57
2023/03/04 09:47:58;;;;;;;62.57;37.23;;;20.60;46.20;;;;;;5074055;28;20970;-57
2023/03/04 09:50:26;;;;;;;49.13;34.50;;;20.50;46.40;;;;;;5074006;28;20978;-57
2023/03/04 09:53:07;;;;;;;48.80;34.10;;;20.50;46.50;;;;;;5073975;28;20506;-55
2023/03/04 09:55:37;;;;;;;55.73;35.27;;;20.50;46.50;;;;;;5074134;28;20800;-64
2023/03/04 09:58:13;;;;;;;55.57;30.80;;;20.50;46.70;;;;;;5073541;28;20483;-59
2023/03/04 10:00:43;;;;;;;48.70;33.50;;;20.60;46.60;;;;;;5069282;28;20898;-59
2023/03/04 10:03:18;;;;;;;39.50;28.23;;;20.60;46.60;;;;;;5072546;28;20471;-56
2023/03/04 10:05:53;;;;;;;41.60;29.53;;;20.60;46.70;;;;;;5073359;28;20844;-59
2023/03/04 10:08:38;;;;;;;34.10;26.53;;;20.60;46.80;;;;;;5071880;28;20450;-56
2023/03/04 10:11:13;;;;;;;35.40;28.63;;;20.60;47.00;;;;;;5071836;28;20502;-53
2023/03/04 10:13:47;;;;;;;41.73;26.60;;;20.60;46.80;;;;;;5071665;28;20485;-55
2023/03/04 10:16:19;;;;;;;39.73;26.93;;;20.50;46.80;;;;;;5071137;28;20485;-62
2023/03/04 10:18:51;;;;;;;42.33;27.13;;;20.60;47.00;;;;;;5051962;28;20463;-63
2023/03/04 10:21:24;;;;;;;43.53;28.50;;;20.60;46.80;;;;;;5051805;28;20860;-62
2023/03/04 10:23:53;;;;;;;41.13;28.63;;;20.60;46.80;;;;;;5051738;28;20451;-61
2023/03/04 10:26:22;;;;;;;33.40;24.37;;;20.60;47.00;;;;;;5052152;28;20444;-61
2023/03/04 10:28:49;;;;;;;32.57;25.30;;;20.60;47.10;;;;;;5051897;28;20460;-62
2023/03/04 10:31:22;;;;;;;33.10;26.60;;;20.60;47.20;;;;;;5051412;28;20519;-63
2023/03/04 10:33:49;;;;;;;38.75;24.83;;;20.60;48.10;;;;;;5050742;28;20432;-60
2023/03/04 10:36:38;;;;;;;38.37;28.23;;;20.60;47.40;;;;;;5051537;28;20233;-62
2023/03/04 10:39:10;;;;;;;37.27;27.60;;;20.70;47.30;;;;;;5051622;28;20468;-63
2023/03/04 10:41:41;;;;;;;33.50;25.27;;;20.80;47.30;;;;;;5052935;28;20519;-63
2023/03/04 10:44:16;;;;;;;41.80;23.60;;;20.70;47.20;;;;;;5053561;28;20979;-62
2023/03/04 10:46:44;;;;;;;28.23;23.07;;;20.70;47.40;;;;;;5055827;28;20452;-61
2023/03/04 10:49:14;;;;;;;27.07;24.30;;;20.70;47.30;;;;;;5073432;28;20884;-61
2023/03/04 10:51:45;;;;;;;34.93;23.77;;;20.70;47.20;;;;;;5073788;28;20470;-62
2023/03/04 10:54:27;;;;;;;28.90;22.90;;;20.60;47.20;;;;;;5073181;28;20470;-64
2023/03/04 10:56:57;;;;;;;26.23;22.60;;;20.70;47.30;;;;;;5073400;28;20507;-62
2023/03/04 10:59:31;;;;;;;31.13;22.10;;;20.70;47.30;;;;;;5073513;28;20471;-64
2023/03/04 11:01:59;;;;;;;41.13;21.70;;;20.70;47.40;;;;;;5073206;28;20511;-65
2023/03/04 11:04:32;;;;;;;29.53;23.20;;;20.60;47.40;;;;;;5073779;28;20493;-65
2023/03/04 11:06:59;;;;;;;26.87;20.80;;;20.70;47.90;;;;;;5072978;28;20467;-66
2023/03/04 11:09:29;;;;;;;22.67;20.47;;;20.80;47.70;;;;;;5073224;28;20483;-64
2023/03/04 11:12:00;;;;;;;29.17;22.40;;;20.80;47.50;;;;;;5072545;28;20470;-65
2023/03/04 11:14:31;;;;;;;19.97;18.07;;;20.90;47.40;;;;;;5072145;28;20467;-66
2023/03/04 11:17:00;;;;;;;25.50;19.50;;;20.90;47.10;;;;;;5071657;28;20802;-61
2023/03/04 11:19:35;;;;;;;26.33;21.30;;;20.90;47.00;;;;;;5071523;28;20475;-62
2023/03/04 11:22:03;;;;;;;22.13;19.90;;;20.80;46.90;;;;;;5071526;28;20478;-62
2023/03/04 11:24:35;;;;;;;23.33;19.43;;;20.80;47.00;;;;;;5071866;28;20727;-62
2023/03/04 11:27:08;;;;;;;20.90;18.60;;;20.70;47.00;;;;;;5071838;28;20496;-65
2023/03/04 11:29:42;;;;;;;24.00;20.17;;;20.70;47.10;;;;;;5075236;28;20494;-65
2023/03/04 11:32:14;;;;;;;26.47;18.23;;;20.70;47.20;;;;;;5075720;28;20946;-64
2023/03/04 11:34:46;;;;;;;19.87;17.93;;;20.60;47.20;;;;;;5075539;28;20481;-63
2023/03/04 11:37:21;;;;;;;18.43;16.60;;;20.60;47.30;;;;;;5075152;28;20911;-60
2023/03/04 11:39:52;;;;;;;19.00;17.20;;;20.60;47.40;;;;;;5075281;28;20478;-65
2023/03/04 11:42:28;;;;;;;19.10;17.30;;;20.60;47.40;;;;;;5075447;28;20486;-63
2023/03/04 11:44:55;;;;;;;28.03;17.97;;;20.50;48.00;;;;;;5076449;28;20451;-66
2023/03/04 11:47:38;;;;;;;20.35;17.10;;;20.50;48.20;;;;;;5076338;28;20460;-64
2023/03/04 11:50:44;;;;;;;21.60;19.53;;;20.60;48.50;;;;;;5076587;28;20279;-63
2023/03/04 11:53:31;;;;;;;19.90;17.10;;;20.50;48.60;;;;;;5075596;28;20459;-64
2023/03/04 11:56:12;;;;;;;19.77;17.37;;;20.50;48.60;;;;;;5076022;28;20521;-65
2023/03/04 11:58:53;;;;;;;17.10;15.27;;;20.50;48.50;;;;;;5075744;28;20562;-64
2023/03/04 12:01:27;;;;;;;17.60;16.20;;;20.50;48.40;;;;;;5075649;28;20469;-64
2023/03/04 12:04:07;;;;;;;18.00;16.30;;;20.60;48.40;;;;;;5076595;28;20488;-67
2023/03/04 12:06:44;;;;;;;16.53;15.07;;;20.60;48.20;;;;;;5076523;28;20867;-67
2023/03/04 12:09:31;;;;;;;17.47;16.17;;;20.60;48.30;;;;;;5076676;28;20479;-64
2023/03/04 12:12:09;;;;;;;17.20;16.03;;;20.60;48.30;;;;;;5076778;28;20447;-64
2023/03/04 12:14:43;;;;;;;16.77;15.37;;;20.60;48.30;;;;;;5076337;28;20879;-62
2023/03/04 12:17:33;;;;;;;17.97;16.17;;;20.60;48.30;;;;;;5075975;28;20981;-62
2023/03/04 12:20:31;;;;;;;16.37;14.87;;;20.70;48.20;;;;;;5076759;28;20501;-64
2023/03/04 12:23:10;;;;;;;16.23;14.93;;;20.70;48.20;;;;;;5042229;28;20486;-62
2023/03/04 12:25:44;;;;;;;17.00;15.70;;;20.70;48.00;;;;;;5076710;28;20474;-62
2023/03/04 12:28:42;;;;;;;16.30;15.20;;;20.70;48.00;;;;;;5076346;28;20509;-63
2023/03/04 12:31:32;;;;;;;16.03;14.73;;;20.60;47.80;;;;;;5075993;28;20499;-63
2023/03/04 12:34:20;;;;;;;15.30;14.00;;;20.70;47.70;;;;;;5076134;28;20443;-63
2023/03/04 12:36:55;;;;;;;15.40;14.10;;;20.70;47.50;;;;;;5075038;28;20451;-65
2023/03/04 12:39:30;;;;;;;15.57;13.97;;;20.70;47.60;;;;;;5074833;28;20514;-65
2023/03/04 12:42:06;;;;;;;14.60;13.70;;;20.70;47.70;;;;;;5075536;28;20950;-65
2023/03/04 12:44:39;;;;;;;14.20;13.20;;;20.80;47.70;;;;;;5075386;28;20476;-63
2023/03/04 12:47:20;;;;;;;14.53;13.20;;;20.80;47.60;;;;;;5075745;28;20471;-62